sensor_id;sensor_type;location;lat;lon;timestamp;temperature;humidity
14154;DHT22;7157;53.144;7.570;2023-05-10T00:09:10;15.80;108.02
14154;DHT22;7157;53.144;7.570;2023-05-10T00:19:13;15.75;108.12
14154;DHT22;7157;53.144;7.570;2023-05-10T00:29:17;15.72;108.11
14154;DHT22;7157;53.144;7.570;2023-05-10T00:39:20;15.72;108.02
14154;DHT22;7157;53.144;7.570;2023-05-10T00:49:25;15.76;107.96
14154;DHT22;7157;53.144;7.570;2023-05-10T00:59:28;15.34;108.01
14154;DHT22;7157;53.144;7.570;2023-05-10T01:09:32;15.30;108.20
14154;DHT22;7157;53.144;7.570;2023-05-10T01:19:36;15.24;108.20
14154;DHT22;7157;53.144;7.570;2023-05-10T01:30:05;15.21;107.82
14154;DHT22;7157;53.144;7.570;2023-05-10T01:40:28;15.06;108.11
14154;DHT22;7157;53.144;7.570;2023-05-10T01:50:32;14.98;108.27
14154;DHT22;7157;53.144;7.570;2023-05-10T02:00:40;14.85;108.49
14154;DHT22;7157;53.144;7.570;2023-05-10T02:10:45;14.89;108.33
14154;DHT22;7157;53.144;7.570;2023-05-10T02:20:51;14.68;108.40
14154;DHT22;7157;53.144;7.570;2023-05-10T02:30:56;14.27;108.66
14154;DHT22;7157;53.144;7.570;2023-05-10T02:41:01;14.13;109.10
14154;DHT22;7157;53.144;7.570;2023-05-10T02:51:06;13.93;108.97
14154;DHT22;7157;53.144;7.570;2023-05-10T03:01:10;13.70;109.16
14154;DHT22;7157;53.144;7.570;2023-05-10T03:11:25;13.60;109.20
14154;DHT22;7157;53.144;7.570;2023-05-10T03:21:32;13.85;109.37
14154;DHT22;7157;53.144;7.570;2023-05-10T03:31:35;13.70;109.15
14154;DHT22;7157;53.144;7.570;2023-05-10T03:41:39;13.63;109.62
14154;DHT22;7157;53.144;7.570;2023-05-10T03:51:42;13.68;109.52
14154;DHT22;7157;53.144;7.570;2023-05-10T04:01:46;13.52;109.54
14154;DHT22;7157;53.144;7.570;2023-05-10T04:11:49;13.56;109.53
14154;DHT22;7157;53.144;7.570;2023-05-10T04:21:53;13.54;109.83
14154;DHT22;7157;53.144;7.570;2023-05-10T04:31:56;13.52;109.54
14154;DHT22;7157;53.144;7.570;2023-05-10T04:42:00;13.65;109.21
14154;DHT22;7157;53.144;7.570;2023-05-10T04:52:04;13.55;109.26
14154;DHT22;7157;53.144;7.570;2023-05-10T05:02:08;13.58;108.87
14154;DHT22;7157;53.144;7.570;2023-05-10T05:12:11;13.85;108.79
14154;DHT22;7157;53.144;7.570;2023-05-10T05:22:17;13.83;108.43
14154;DHT22;7157;53.144;7.570;2023-05-10T05:32:22;14.19;108.13
14154;DHT22;7157;53.144;7.570;2023-05-10T05:42:26;14.35;107.86
14154;DHT22;7157;53.144;7.570;2023-05-10T05:52:30;14.37;107.62
14154;DHT22;7157;53.144;7.570;2023-05-10T06:02:34;14.44;107.65
14154;DHT22;7157;53.144;7.570;2023-05-10T06:12:37;14.38;107.75
14154;DHT22;7157;53.144;7.570;2023-05-10T06:22:41;14.35;107.59
14154;DHT22;7157;53.144;7.570;2023-05-10T06:32:44;13.93;107.69
14154;DHT22;7157;53.144;7.570;2023-05-10T06:42:49;13.83;108.21
14154;DHT22;7157;53.144;7.570;2023-05-10T06:52:51;13.89;108.38
14154;DHT22;7157;53.144;7.570;2023-05-10T07:02:55;13.92;108.66
14154;DHT22;7157;53.144;7.570;2023-05-10T07:12:58;13.94;108.78
14154;DHT22;7157;53.144;7.570;2023-05-10T07:23:03;13.85;108.23
14154;DHT22;7157;53.144;7.570;2023-05-10T07:33:05;13.97;108.29
14154;DHT22;7157;53.144;7.570;2023-05-10T07:43:10;13.84;108.76
14154;DHT22;7157;53.144;7.570;2023-05-10T07:53:12;13.68;109.49
14154;DHT22;7157;53.144;7.570;2023-05-10T08:03:16;13.74;108.75
14154;DHT22;7157;53.144;7.570;2023-05-10T08:13:20;13.85;108.71
14154;DHT22;7157;53.144;7.570;2023-05-10T08:23:24;14.06;108.52
14154;DHT22;7157;53.144;7.570;2023-05-10T08:33:27;14.27;108.74
14154;DHT22;7157;53.144;7.570;2023-05-10T08:43:31;14.25;108.47
14154;DHT22;7157;53.144;7.570;2023-05-10T08:53:36;13.88;109.23
14154;DHT22;7157;53.144;7.570;2023-05-10T09:03:41;14.14;108.43
14154;DHT22;7157;53.144;7.570;2023-05-10T09:13:44;14.08;108.55
14154;DHT22;7157;53.144;7.570;2023-05-10T09:23:48;13.95;108.53
14154;DHT22;7157;53.144;7.570;2023-05-10T09:33:53;13.70;108.88
14154;DHT22;7157;53.144;7.570;2023-05-10T09:43:57;13.80;108.91
14154;DHT22;7157;53.144;7.570;2023-05-10T09:54:10;13.44;109.74
14154;DHT22;7157;53.144;7.570;2023-05-10T10:04:14;13.63;109.88
14154;DHT22;7157;53.144;7.570;2023-05-10T10:14:18;13.90;109.17
14154;DHT22;7157;53.144;7.570;2023-05-10T10:24:22;13.84;109.10
14154;DHT22;7157;53.144;7.570;2023-05-10T10:34:27;13.80;108.78
14154;DHT22;7157;53.144;7.570;2023-05-10T10:44:36;13.95;108.21
14154;DHT22;7157;53.144;7.570;2023-05-10T10:54:39;14.19;106.85
14154;DHT22;7157;53.144;7.570;2023-05-10T11:04:44;14.65;106.01
14154;DHT22;7157;53.144;7.570;2023-05-10T11:14:49;14.39;105.39
14154;DHT22;7157;53.144;7.570;2023-05-10T11:24:59;14.67;104.94
14154;DHT22;7157;53.144;7.570;2023-05-10T11:35:07;14.79;104.63
14154;DHT22;7157;53.144;7.570;2023-05-10T11:45:11;15.23;103.63
14154;DHT22;7157;53.144;7.570;2023-05-10T11:55:14;15.49;103.47
14154;DHT22;7157;53.144;7.570;2023-05-10T12:05:18;16.79;100.31
14154;DHT22;7157;53.144;7.570;2023-05-10T12:15:22;16.26;99.38
14154;DHT22;7157;53.144;7.570;2023-05-10T12:25:31;17.13;97.43
14154;DHT22;7157;53.144;7.570;2023-05-10T12:35:44;16.56;98.82
14154;DHT22;7157;53.144;7.570;2023-05-10T12:45:48;16.05;100.21
14154;DHT22;7157;53.144;7.570;2023-05-10T12:55:51;16.08;99.19
14154;DHT22;7157;53.144;7.570;2023-05-10T13:05:56;17.91;96.32
14154;DHT22;7157;53.144;7.570;2023-05-10T13:15:58;17.02;96.42
14154;DHT22;7157;53.144;7.570;2023-05-10T13:26:02;16.51;98.42
14154;DHT22;7157;53.144;7.570;2023-05-10T13:36:06;16.70;97.31
14154;DHT22;7157;53.144;7.570;2023-05-10T13:46:10;16.54;98.14
14154;DHT22;7157;53.144;7.570;2023-05-10T13:56:13;16.64;97.95
14154;DHT22;7157;53.144;7.570;2023-05-10T14:06:17;17.95;96.68
14154;DHT22;7157;53.144;7.570;2023-05-10T14:16:20;18.23;93.93
14154;DHT22;7157;53.144;7.570;2023-05-10T14:26:24;17.30;93.34
14154;DHT22;7157;53.144;7.570;2023-05-10T14:36:27;17.13;95.56
14154;DHT22;7157;53.144;7.570;2023-05-10T14:46:31;17.11;96.10
14154;DHT22;7157;53.144;7.570;2023-05-10T14:56:35;16.67;96.38
14154;DHT22;7157;53.144;7.570;2023-05-10T15:06:41;16.43;95.62
14154;DHT22;7157;53.144;7.570;2023-05-10T15:16:43;16.63;95.07
14154;DHT22;7157;53.144;7.570;2023-05-10T15:26:47;17.32;92.24
14154;DHT22;7157;53.144;7.570;2023-05-10T15:36:50;17.51;92.16
14154;DHT22;7157;53.144;7.570;2023-05-10T15:46:54;17.69;90.24
14154;DHT22;7157;53.144;7.570;2023-05-10T15:56:57;18.07;87.33
14154;DHT22;7157;53.144;7.570;2023-05-10T16:07:01;19.25;81.32
14154;DHT22;7157;53.144;7.570;2023-05-10T16:17:04;18.27;83.37
14154;DHT22;7157;53.144;7.570;2023-05-10T16:27:09;17.68;82.50
14154;DHT22;7157;53.144;7.570;2023-05-10T16:37:13;17.63;84.55
14154;DHT22;7157;53.144;7.570;2023-05-10T16:47:17;17.47;84.45
14154;DHT22;7157;53.144;7.570;2023-05-10T16:57:20;17.56;85.93
14154;DHT22;7157;53.144;7.570;2023-05-10T17:07:24;17.53;85.15
14154;DHT22;7157;53.144;7.570;2023-05-10T17:17:30;17.36;84.12
14154;DHT22;7157;53.144;7.570;2023-05-10T17:27:35;17.32;84.66
14154;DHT22;7157;53.144;7.570;2023-05-10T17:37:38;17.21;85.00
14154;DHT22;7157;53.144;7.570;2023-05-10T17:47:43;17.23;85.71
14154;DHT22;7157;53.144;7.570;2023-05-10T17:57:46;17.01;85.98
14154;DHT22;7157;53.144;7.570;2023-05-10T18:07:53;16.79;86.12
14154;DHT22;7157;53.144;7.570;2023-05-10T18:17:57;16.40;86.00
14154;DHT22;7157;53.144;7.570;2023-05-10T18:28:01;16.30;87.09
14154;DHT22;7157;53.144;7.570;2023-05-10T18:38:03;16.25;88.25
14154;DHT22;7157;53.144;7.570;2023-05-10T18:48:07;15.98;89.20
14154;DHT22;7157;53.144;7.570;2023-05-10T18:58:11;15.68;90.66
14154;DHT22;7157;53.144;7.570;2023-05-10T19:08:15;15.51;91.36
14154;DHT22;7157;53.144;7.570;2023-05-10T19:18:18;15.17;92.30
14154;DHT22;7157;53.144;7.570;2023-05-10T19:28:22;14.84;93.46
14154;DHT22;7157;53.144;7.570;2023-05-10T19:38:25;14.93;93.88
14154;DHT22;7157;53.144;7.570;2023-05-10T19:48:29;15.03;94.25
14154;DHT22;7157;53.144;7.570;2023-05-10T19:58:33;14.98;95.03
14154;DHT22;7157;53.144;7.570;2023-05-10T20:08:37;14.89;95.55
14154;DHT22;7157;53.144;7.570;2023-05-10T20:18:40;14.80;95.88
14154;DHT22;7157;53.144;7.570;2023-05-10T20:28:44;14.73;96.17
14154;DHT22;7157;53.144;7.570;2023-05-10T20:38:46;14.64;96.49
14154;DHT22;7157;53.144;7.570;2023-05-10T20:48:51;14.42;96.71
14154;DHT22;7157;53.144;7.570;2023-05-10T20:58:54;14.26;97.31
14154;DHT22;7157;53.144;7.570;2023-05-10T21:08:58;14.15;97.21
14154;DHT22;7157;53.144;7.570;2023-05-10T21:19:01;13.93;97.60
14154;DHT22;7157;53.144;7.570;2023-05-10T21:29:05;13.88;97.86
14154;DHT22;7157;53.144;7.570;2023-05-10T21:39:08;13.90;97.74
14154;DHT22;7157;53.144;7.570;2023-05-10T21:49:12;13.76;97.65
14154;DHT22;7157;53.144;7.570;2023-05-10T21:59:14;13.58;97.97
14154;DHT22;7157;53.144;7.570;2023-05-10T22:09:19;13.51;97.98
14154;DHT22;7157;53.144;7.570;2023-05-10T22:19:24;13.40;98.79
14154;DHT22;7157;53.144;7.570;2023-05-10T22:29:28;13.37;98.90
14154;DHT22;7157;53.144;7.570;2023-05-10T22:39:32;13.41;98.82
14154;DHT22;7157;53.144;7.570;2023-05-10T22:49:36;13.30;98.90
14154;DHT22;7157;53.144;7.570;2023-05-10T22:59:39;13.20;99.29
14154;DHT22;7157;53.144;7.570;2023-05-10T23:09:44;13.25;99.45
14154;DHT22;7157;53.144;7.570;2023-05-10T23:19:47;13.30;99.71
14154;DHT22;7157;53.144;7.570;2023-05-10T23:29:51;13.21;100.19
14154;DHT22;7157;53.144;7.570;2023-05-10T23:39:56;13.17;100.64
14154;DHT22;7157;53.144;7.570;2023-05-10T23:50:00;13.17;100.80
